Jean Anne — WDC3786 — position and weather

sailwx.info

Track history (hours):
 
Tides and Currents Weather Stations Pressure Air Temp Water Temp Dewpoint Dewpoint Depression Visibility Wind Speed Wind Dir Waves Ship Positions

Jean Anne

More information available from US FCC via Universal Licensing System and Coast Guard Vessel Documentation Center.

Last reported at 2014-Jul-27 06:00 UTC. Time now 2014-Jul-31 03:21 UTC.
Position N 25°42' W 141°42'.

Type: Cargo ship. MMSI: 367003380.

Wind from 090 at 19 knots

Waves 1.5 meters (5 feet), 6 second period

Barometer 1021.0 mb
Air temperature 23.8 ° C
Visibility: greater than 10.8 NM
Dewpoint 20.0 ° C

Date/timePositionNaut miles runAvg speedWind from/ knotsBaromVisibWave heightAir tempDewpointWater temp
2014-Jul-27 06:00N 25°42' W 141°42'85 7.1 090 / 191021.010.8 1.523.820.0
2014-Jul-26 18:00N 26°48' W 140°42'22819.0 080 / 131021.610.8 1.024.817.9
2014-Jul-26 06:00N 27°54' W 136°36'26818.4 050 / 131022.010.8 1.020.218.4
2014-Jul-25 15:26N 28°59' W 131°40'2218.8
2014-Jul-25 14:17N 29°04' W 131°16'3819.0
2014-Jul-25 12:18N 29°11' W 130°34'7519.1
2014-Jul-25 08:22N 29°26' W 129°09'1619.0
2014-Jul-25 07:31N 29°29' W 128°51'1919.3
2014-Jul-25 06:33N 29°33' W 128°30'1628.3
2014-Jul-25 06:00N 29°30' W 128°12'6717.9 360 / 241020.510.8 2.019.017.2
2014-Jul-25 02:16N 29°47' W 126°58'3718.9
2014-Jul-25 00:16N 29°54' W 126°15'1418.8
2014-Jul-24 23:33N 29°56' W 125°60'11019.8
2014-Jul-24 18:00N 30°12' W 123°54'8317.8 360 / 241019.510.8 2.021.518.0
2014-Jul-24 13:21N 30°24' W 122°19'5218.5
2014-Jul-24 10:33N 30°33' W 121°20'1818.4
2014-Jul-24 09:33N 30°37' W 120°59'1818.6
2014-Jul-24 08:33N 30°41' W 120°38'1818.5
2014-Jul-24 07:33N 30°45' W 120°17'1818.2
2014-Jul-24 06:33N 30°48' W 119°56'1818.1
2014-Jul-24 05:33N 30°52' W 119°36'1818.1
2014-Jul-24 04:33N 30°56' W 119°15'1817.8
2014-Jul-24 03:33N 31°00' W 118°55'1817.6
2014-Jul-24 02:33N 31°05' W 118°35'1918.9
2014-Jul-24 01:33N 31°20' W 118°22'1919.2
2014-Jul-24 00:33N 31°35' W 118°08'1918.9
2014-Jul-23 23:33N 31°50' W 117°55'1515.3
2014-Jul-23 22:33N 32°02' W 117°44'1414.4
2014-Jul-23 21:33N 32°14' W 117°34'1312.5
2014-Jul-23 20:33N 32°24' W 117°26'5 5.4
2014-Jul-23 19:33N 32°29' W 117°22'1313.0
2014-Jul-23 18:34N 32°40' W 117°14'5 5.1
2014-Jul-23 17:33N 32°40' W 117°08'0 0.3
2014-Jul-23 16:33N 32°39' W 117°07'0 0.0
2014-Jul-23 15:30N 32°39' W 117°07'0 0.0
2014-Jul-23 14:33N 32°39' W 117°07'0 0.0
2014-Jul-23 13:33N 32°39' W 117°07'0 0.0
2014-Jul-23 12:33N 32°39' W 117°07'0 0.0
2014-Jul-23 11:33N 32°39' W 117°07'0 0.0
2014-Jul-23 10:33N 32°39' W 117°07'0 0.0
2014-Jul-23 09:33N 32°39' W 117°07'0 0.0
2014-Jul-23 08:33N 32°39' W 117°07'0 0.0
2014-Jul-23 07:33N 32°39' W 117°07'0 0.0
2014-Jul-23 06:33N 32°39' W 117°07'0 0.0
2014-Jul-23 05:33N 32°39' W 117°07'0 0.0
2014-Jul-23 04:33N 32°39' W 117°07'0 0.0
2014-Jul-23 03:33N 32°39' W 117°07'0 0.0
2014-Jul-23 02:33N 32°39' W 117°07'0 0.0
2014-Jul-23 01:33N 32°39' W 117°07'0 0.0
2014-Jul-23 00:33N 32°39' W 117°07'0 0.0
2014-Jul-22 23:33N 32°39' W 117°07'0 0.0
2014-Jul-22 22:33N 32°39' W 117°07'0 0.0
2014-Jul-22 21:33N 32°39' W 117°07'0 0.0
2014-Jul-22 20:33N 32°39' W 117°07'0 0.0
2014-Jul-22 19:33N 32°39' W 117°07'0 0.0
2014-Jul-22 18:33N 32°39' W 117°07'0 0.0
2014-Jul-22 17:33N 32°39' W 117°07'0 0.0
2014-Jul-22 16:33N 32°39' W 117°07'0 0.0
2014-Jul-22 15:33N 32°39' W 117°07'0 0.0
2014-Jul-22 14:33N 32°39' W 117°07'1 1.3
2014-Jul-22 13:33N 32°41' W 117°08'6 6.0
2014-Jul-22 12:33N 32°37' W 117°14'8 7.6
2014-Jul-22 11:32N 32°31' W 117°19'1312.9
2014-Jul-22 10:33N 32°21' W 117°28'1515.0
2014-Jul-22 09:32N 32°09' W 117°39'1818.6
2014-Jul-22 08:33N 31°54' W 117°52'1919.4
2014-Jul-22 07:34N 31°38' W 118°05'1919.5
2014-Jul-22 06:34N 31°22' W 118°18'2219.2
2014-Jul-22 05:25N 31°05' W 118°34'1819.3
2014-Jul-22 04:31N 30°60' W 118°53'4120.1
2014-Jul-22 02:28N 30°51' W 119°40'2320.0
2014-Jul-22 01:20N 30°47' W 120°06'61419.6
2014-Jul-20 18:00N 28°18' W 131°30'   340 / 91017.610.8 2.021.014.6
Track history (hours):
 
Tides and Currents Weather Stations Pressure Air Temp Water Temp Dewpoint Dewpoint Depression Visibility Wind Speed Wind Dir Waves Ship Positions

Jean Anne

More information available from US FCC via Universal Licensing System and Coast Guard Vessel Documentation Center.

Last reported at 2014-Jul-27 06:00 UTC. Time now 2014-Jul-31 03:21 UTC.
Position N 25°42' W 141°42'.

Type: Cargo ship. MMSI: 367003380.

Wind from 090 at 19 knots

Waves 1.5 meters (5 feet), 6 second period

Barometer 1021.0 mb
Air temperature 23.8 ° C
Visibility: greater than 10.8 NM
Dewpoint 20.0 ° C

Date/timePositionNaut miles runAvg speedWind from/ knotsBaromVisibWave heightAir tempDewpointWater temp
2014-Jul-27 06:00N 25°42' W 141°42'85 7.1 090 / 191021.010.8 1.523.820.0
2014-Jul-26 18:00N 26°48' W 140°42'22819.0 080 / 131021.610.8 1.024.817.9
2014-Jul-26 06:00N 27°54' W 136°36'26818.4 050 / 131022.010.8 1.020.218.4
2014-Jul-25 15:26N 28°59' W 131°40'2218.8
2014-Jul-25 14:17N 29°04' W 131°16'3819.0
2014-Jul-25 12:18N 29°11' W 130°34'7519.1
2014-Jul-25 08:22N 29°26' W 129°09'1619.0
2014-Jul-25 07:31N 29°29' W 128°51'1919.3
2014-Jul-25 06:33N 29°33' W 128°30'1628.3
2014-Jul-25 06:00N 29°30' W 128°12'6717.9 360 / 241020.510.8 2.019.017.2
2014-Jul-25 02:16N 29°47' W 126°58'3718.9
2014-Jul-25 00:16N 29°54' W 126°15'1418.8
2014-Jul-24 23:33N 29°56' W 125°60'11019.8
2014-Jul-24 18:00N 30°12' W 123°54'8317.8 360 / 241019.510.8 2.021.518.0
2014-Jul-24 13:21N 30°24' W 122°19'5218.5
2014-Jul-24 10:33N 30°33' W 121°20'1818.4
2014-Jul-24 09:33N 30°37' W 120°59'1818.6
2014-Jul-24 08:33N 30°41' W 120°38'1818.5
2014-Jul-24 07:33N 30°45' W 120°17'1818.2
2014-Jul-24 06:33N 30°48' W 119°56'1818.1
2014-Jul-24 05:33N 30°52' W 119°36'1818.1
2014-Jul-24 04:33N 30°56' W 119°15'1817.8
2014-Jul-24 03:33N 31°00' W 118°55'1817.6
2014-Jul-24 02:33N 31°05' W 118°35'1918.9
2014-Jul-24 01:33N 31°20' W 118°22'1919.2
2014-Jul-24 00:33N 31°35' W 118°08'1918.9
2014-Jul-23 23:33N 31°50' W 117°55'1515.3
2014-Jul-23 22:33N 32°02' W 117°44'1414.4
2014-Jul-23 21:33N 32°14' W 117°34'1312.5
2014-Jul-23 20:33N 32°24' W 117°26'5 5.4
2014-Jul-23 19:33N 32°29' W 117°22'1313.0
2014-Jul-23 18:34N 32°40' W 117°14'5 5.1
2014-Jul-23 17:33N 32°40' W 117°08'0 0.3
2014-Jul-23 16:33N 32°39' W 117°07'0 0.0
2014-Jul-23 15:30N 32°39' W 117°07'0 0.0
2014-Jul-23 14:33N 32°39' W 117°07'0 0.0
2014-Jul-23 13:33N 32°39' W 117°07'0 0.0
2014-Jul-23 12:33N 32°39' W 117°07'0 0.0
2014-Jul-23 11:33N 32°39' W 117°07'0 0.0
2014-Jul-23 10:33N 32°39' W 117°07'0 0.0
2014-Jul-23 09:33N 32°39' W 117°07'0 0.0
2014-Jul-23 08:33N 32°39' W 117°07'0 0.0
2014-Jul-23 07:33N 32°39' W 117°07'0 0.0
2014-Jul-23 06:33N 32°39' W 117°07'0 0.0
2014-Jul-23 05:33N 32°39' W 117°07'0 0.0
2014-Jul-23 04:33N 32°39' W 117°07'0 0.0
2014-Jul-23 03:33N 32°39' W 117°07'0 0.0
2014-Jul-23 02:33N 32°39' W 117°07'0 0.0
2014-Jul-23 01:33N 32°39' W 117°07'0 0.0
2014-Jul-23 00:33N 32°39' W 117°07'0 0.0
2014-Jul-22 23:33N 32°39' W 117°07'0 0.0
2014-Jul-22 22:33N 32°39' W 117°07'0 0.0
2014-Jul-22 21:33N 32°39' W 117°07'0 0.0
2014-Jul-22 20:33N 32°39' W 117°07'0 0.0
2014-Jul-22 19:33N 32°39' W 117°07'0 0.0
2014-Jul-22 18:33N 32°39' W 117°07'0 0.0
2014-Jul-22 17:33N 32°39' W 117°07'0 0.0
2014-Jul-22 16:33N 32°39' W 117°07'0 0.0
2014-Jul-22 15:33N 32°39' W 117°07'0 0.0
2014-Jul-22 14:33N 32°39' W 117°07'1 1.3
2014-Jul-22 13:33N 32°41' W 117°08'6 6.0
2014-Jul-22 12:33N 32°37' W 117°14'8 7.6
2014-Jul-22 11:32N 32°31' W 117°19'1312.9
2014-Jul-22 10:33N 32°21' W 117°28'1515.0
2014-Jul-22 09:32N 32°09' W 117°39'1818.6
2014-Jul-22 08:33N 31°54' W 117°52'1919.4
2014-Jul-22 07:34N 31°38' W 118°05'1919.5
2014-Jul-22 06:34N 31°22' W 118°18'2219.2
2014-Jul-22 05:25N 31°05' W 118°34'1819.3
2014-Jul-22 04:31N 30°60' W 118°53'4120.1
2014-Jul-22 02:28N 30°51' W 119°40'2320.0
2014-Jul-22 01:20N 30°47' W 120°06'61419.6
2014-Jul-20 18:00N 28°18' W 131°30'   340 / 91017.610.8 2.021.014.6

Dump ship's entire track history